sensor_id;sensor_type;location;lat;lon;timestamp;pressure;altitude;pressure_sealevel;temperature;humidity
77110;BME280;66062;52.464;16.922;2023-04-09T00:02:19;101561.25;;;6.53;86.67
77110;BME280;66062;52.464;16.922;2023-04-09T00:04:45;101563.13;;;6.51;87.23
77110;BME280;66062;52.464;16.922;2023-04-09T00:07:10;101577.09;;;6.55;86.72
77110;BME280;66062;52.464;16.922;2023-04-09T00:09:36;101572.78;;;6.52;86.58
77110;BME280;66062;52.464;16.922;2023-04-09T00:12:01;101562.69;;;6.59;86.26
77110;BME280;66062;52.464;16.922;2023-04-09T00:14:27;101559.44;;;6.54;87.08
77110;BME280;66062;52.464;16.922;2023-04-09T00:16:53;101575.91;;;6.44;87.29
77110;BME280;66062;52.464;16.922;2023-04-09T00:19:19;101571.94;;;6.52;87.75
77110;BME280;66062;52.464;16.922;2023-04-09T00:21:45;101575.91;;;6.44;87.04
77110;BME280;66062;52.464;16.922;2023-04-09T00:24:10;101568.03;;;6.43;87.92
77110;BME280;66062;52.464;16.922;2023-04-09T00:26:36;101568.03;;;6.43;87.74
77110;BME280;66062;52.464;16.922;2023-04-09T00:29:01;101570.50;;;6.46;87.95
77110;BME280;66062;52.464;16.922;2023-04-09T00:31:27;101564.25;;;6.47;87.65
77110;BME280;66062;52.464;16.922;2023-04-09T00:33:52;101570.78;;;6.41;88.55
77110;BME280;66062;52.464;16.922;2023-04-09T00:36:17;101564.19;;;6.49;87.54
77110;BME280;66062;52.464;16.922;2023-04-09T00:38:43;101565.31;;;6.44;87.85
77110;BME280;66062;52.464;16.922;2023-04-09T00:41:09;101565.78;;;6.51;87.59
77110;BME280;66062;52.464;16.922;2023-04-09T00:43:34;101558.59;;;6.53;88.30
77110;BME280;66062;52.464;16.922;2023-04-09T00:46:00;101563.53;;;6.59;86.81
77110;BME280;66062;52.464;16.922;2023-04-09T00:48:26;101558.25;;;6.59;86.84
77110;BME280;66062;52.464;16.922;2023-04-09T00:50:52;101563.34;;;6.62;87.25
77110;BME280;66062;52.464;16.922;2023-04-09T00:53:17;101560.53;;;6.65;87.64
77110;BME280;66062;52.464;16.922;2023-04-09T00:55:43;101557.03;;;6.65;87.82
77110;BME280;66062;52.464;16.922;2023-04-09T00:58:10;101552.09;;;6.59;87.95
77110;BME280;66062;52.464;16.922;2023-04-09T01:00:35;101549.50;;;6.57;87.83
77110;BME280;66062;52.464;16.922;2023-04-09T01:03:01;101551.66;;;6.51;88.44
77110;BME280;66062;52.464;16.922;2023-04-09T01:05:49;101562.84;;;6.56;88.35
77110;BME280;66062;52.464;16.922;2023-04-09T01:14:00;101558.19;;;6.75;87.64
77110;BME280;66062;52.464;16.922;2023-04-09T01:16:28;101554.84;;;6.71;87.94
77110;BME280;66062;52.464;16.922;2023-04-09T01:19:00;101554.09;;;6.69;88.18
77110;BME280;66062;52.464;16.922;2023-04-09T01:21:31;101559.34;;;6.85;87.66
77110;BME280;66062;52.464;16.922;2023-04-09T01:24:25;101559.03;;;6.75;88.08
77110;BME280;66062;52.464;16.922;2023-04-09T01:27:01;101549.25;;;6.76;87.90
77110;BME280;66062;52.464;16.922;2023-04-09T01:29:30;101554.09;;;6.69;87.64
77110;BME280;66062;52.464;16.922;2023-04-09T01:31:58;101556.75;;;6.69;88.56
77110;BME280;66062;52.464;16.922;2023-04-09T01:34:25;101556.84;;;6.68;87.85
77110;BME280;66062;52.464;16.922;2023-04-09T01:36:54;101567.78;;;6.62;88.63
77110;BME280;66062;52.464;16.922;2023-04-09T01:39:22;101564.13;;;6.64;88.20
77110;BME280;66062;52.464;16.922;2023-04-09T01:41:49;101562.31;;;6.65;88.28
77110;BME280;66062;52.464;16.922;2023-04-09T01:44:16;101569.31;;;6.66;88.24
77110;BME280;66062;52.464;16.922;2023-04-09T01:46:42;101568.50;;;6.65;88.12
77110;BME280;66062;52.464;16.922;2023-04-09T01:49:09;101562.59;;;6.60;89.86
77110;BME280;66062;52.464;16.922;2023-04-09T01:51:35;101569.00;;;6.56;89.28
77110;BME280;66062;52.464;16.922;2023-04-09T01:54:01;101560.97;;;6.58;89.73
77110;BME280;66062;52.464;16.922;2023-04-09T01:56:27;101563.19;;;6.65;88.99
77110;BME280;66062;52.464;16.922;2023-04-09T01:58:52;101561.63;;;6.61;89.69
77110;BME280;66062;52.464;16.922;2023-04-09T02:01:38;101572.63;;;6.55;89.54
77110;BME280;66062;52.464;16.922;2023-04-09T02:04:21;101557.19;;;6.62;89.92
77110;BME280;66062;52.464;16.922;2023-04-09T02:07:01;101563.81;;;6.55;90.17
77110;BME280;66062;52.464;16.922;2023-04-09T02:09:30;101568.84;;;6.59;90.07
77110;BME280;66062;52.464;16.922;2023-04-09T02:11:58;101565.16;;;6.62;89.37
77110;BME280;66062;52.464;16.922;2023-04-09T02:14:26;101559.75;;;6.63;89.67
77110;BME280;66062;52.464;16.922;2023-04-09T02:16:52;101571.88;;;6.67;89.45
77110;BME280;66062;52.464;16.922;2023-04-09T02:19:18;101564.47;;;6.58;89.95
77110;BME280;66062;52.464;16.922;2023-04-09T02:21:45;101563.34;;;6.62;90.01
77110;BME280;66062;52.464;16.922;2023-04-09T02:24:10;101561.47;;;6.64;89.41
77110;BME280;66062;52.464;16.922;2023-04-09T02:26:35;101563.75;;;6.70;89.06
77110;BME280;66062;52.464;16.922;2023-04-09T02:29:01;101558.25;;;6.59;90.31
77110;BME280;66062;52.464;16.922;2023-04-09T02:31:26;101563.13;;;6.51;90.76
77110;BME280;66062;52.464;16.922;2023-04-09T02:33:52;101549.50;;;6.57;91.21
77110;BME280;66062;52.464;16.922;2023-04-09T02:36:18;101558.97;;;6.47;91.76
77110;BME280;66062;52.464;16.922;2023-04-09T02:38:44;101560.66;;;6.48;91.81
77110;BME280;66062;52.464;16.922;2023-04-09T02:41:09;101562.53;;;6.46;92.25
77110;BME280;66062;52.464;16.922;2023-04-09T02:43:35;101551.59;;;6.52;91.69
77110;BME280;66062;52.464;16.922;2023-04-09T02:46:00;101550.06;;;6.48;92.17
77110;BME280;66062;52.464;16.922;2023-04-09T02:48:25;101554.59;;;6.46;92.77
77110;BME280;66062;52.464;16.922;2023-04-09T02:50:51;101548.19;;;6.50;92.04
77110;BME280;66062;52.464;16.922;2023-04-09T02:53:16;101541.31;;;6.46;93.20
77110;BME280;66062;52.464;16.922;2023-04-09T02:55:41;101539.25;;;6.51;93.63
77110;BME280;66062;52.464;16.922;2023-04-09T02:58:07;101536.03;;;6.46;94.25
77110;BME280;66062;52.464;16.922;2023-04-09T03:00:32;101536.38;;;6.40;94.49
77110;BME280;66062;52.464;16.922;2023-04-09T03:02:58;101528.34;;;6.41;94.92
77110;BME280;66062;52.464;16.922;2023-04-09T03:05:23;101530.72;;;6.46;94.94
77110;BME280;66062;52.464;16.922;2023-04-09T03:07:49;101531.41;;;6.50;94.28
77110;BME280;66062;52.464;16.922;2023-04-09T03:10:15;101539.63;;;6.45;94.52
77110;BME280;66062;52.464;16.922;2023-04-09T03:12:41;101541.09;;;6.35;94.91
77110;BME280;66062;52.464;16.922;2023-04-09T03:15:09;101538.75;;;6.15;95.82
77110;BME280;66062;52.464;16.922;2023-04-09T03:17:34;101551.03;;;6.01;96.91
77110;BME280;66062;52.464;16.922;2023-04-09T03:20:00;101545.91;;;5.98;96.83
77110;BME280;66062;52.464;16.922;2023-04-09T03:22:25;101540.09;;;5.92;98.97
77110;BME280;66062;52.464;16.922;2023-04-09T03:24:50;101529.31;;;5.95;98.43
77110;BME280;66062;52.464;16.922;2023-04-09T03:27:16;101532.66;;;5.98;97.81
77110;BME280;66062;52.464;16.922;2023-04-09T03:29:41;101527.38;;;5.98;98.74
77110;BME280;66062;52.464;16.922;2023-04-09T03:32:07;101526.78;;;5.93;98.60
77110;BME280;66062;52.464;16.922;2023-04-09T03:34:32;101522.72;;;5.86;99.64
77110;BME280;66062;52.464;16.922;2023-04-09T03:36:58;101533.66;;;5.80;100.00
77110;BME280;66062;52.464;16.922;2023-04-09T03:39:24;101525.56;;;5.83;100.00
77110;BME280;66062;52.464;16.922;2023-04-09T03:41:50;101537.34;;;5.78;100.00
77110;BME280;66062;52.464;16.922;2023-04-09T03:44:15;101527.44;;;5.81;100.00
77110;BME280;66062;52.464;16.922;2023-04-09T03:46:40;101520.25;;;5.83;99.98
77110;BME280;66062;52.464;16.922;2023-04-09T03:49:06;101524.50;;;5.86;100.00
77110;BME280;66062;52.464;16.922;2023-04-09T03:51:31;101525.03;;;5.77;100.00
77110;BME280;66062;52.464;16.922;2023-04-09T03:53:57;101515.91;;;5.67;100.00
77110;BME280;66062;52.464;16.922;2023-04-09T03:56:22;101520.16;;;5.69;100.00
77110;BME280;66062;52.464;16.922;2023-04-09T03:58:47;101512.06;;;5.72;100.00
77110;BME280;66062;52.464;16.922;2023-04-09T04:01:14;101520.75;;;5.74;100.00
77110;BME280;66062;52.464;16.922;2023-04-09T04:03:39;101525.72;;;5.65;100.00
77110;BME280;66062;52.464;16.922;2023-04-09T04:06:04;101531.53;;;5.71;100.00
77110;BME280;66062;52.464;16.922;2023-04-09T04:08:30;101527.50;;;5.64;100.00
77110;BME280;66062;52.464;16.922;2023-04-09T04:10:55;101531.38;;;5.58;100.00
77110;BME280;66062;52.464;16.922;2023-04-09T04:13:26;101525.56;;;5.52;100.00
77110;BME280;66062;52.464;16.922;2023-04-09T04:15:52;101520.88;;;5.57;100.00
77110;BME280;66062;52.464;16.922;2023-04-09T04:18:17;101532.41;;;5.56;100.00
77110;BME280;66062;52.464;16.922;2023-04-09T04:20:44;101525.06;;;5.61;100.00
77110;BME280;66062;52.464;16.922;2023-04-09T04:23:09;101533.06;;;5.59;100.00
77110;BME280;66062;52.464;16.922;2023-04-09T04:25:35;101533.19;;;5.58;100.00
77110;BME280;66062;52.464;16.922;2023-04-09T04:28:00;101543.66;;;5.75;100.00
77110;BME280;66062;52.464;16.922;2023-04-09T04:30:25;101539.84;;;5.96;100.00
77110;BME280;66062;52.464;16.922;2023-04-09T04:32:51;101538.31;;;5.92;100.00
77110;BME280;66062;52.464;16.922;2023-04-09T04:35:16;101542.94;;;5.89;100.00
77110;BME280;66062;52.464;16.922;2023-04-09T04:37:41;101536.16;;;5.99;100.00
77110;BME280;66062;52.464;16.922;2023-04-09T04:40:07;101537.44;;;6.08;100.00
77110;BME280;66062;52.464;16.922;2023-04-09T04:42:33;101540.78;;;5.95;100.00
77110;BME280;66062;52.464;16.922;2023-04-09T04:44:59;101538.56;;;6.04;100.00
77110;BME280;66062;52.464;16.922;2023-04-09T04:47:24;101538.03;;;5.97;100.00
77110;BME280;66062;52.464;16.922;2023-04-09T04:49:50;101532.06;;;5.93;100.00
77110;BME280;66062;52.464;16.922;2023-04-09T04:52:15;101537.72;;;5.87;100.00
77110;BME280;66062;52.464;16.922;2023-04-09T04:54:41;101540.06;;;5.76;100.00
77110;BME280;66062;52.464;16.922;2023-04-09T04:57:07;101539.66;;;5.68;100.00
77110;BME280;66062;52.464;16.922;2023-04-09T04:59:36;101538.09;;;5.64;100.00
77110;BME280;66062;52.464;16.922;2023-04-09T05:02:01;101537.03;;;5.68;100.00
77110;BME280;66062;52.464;16.922;2023-04-09T05:04:26;101542.53;;;5.79;100.00
77110;BME280;66062;52.464;16.922;2023-04-09T05:06:52;101539.25;;;5.91;100.00
77110;BME280;66062;52.464;16.922;2023-04-09T05:09:17;101535.38;;;5.97;100.00
77110;BME280;66062;52.464;16.922;2023-04-09T05:11:42;101542.13;;;6.03;100.00
77110;BME280;66062;52.464;16.922;2023-04-09T05:14:08;101538.34;;;6.22;100.00
77110;BME280;66062;52.464;16.922;2023-04-09T05:16:33;101537.63;;;6.34;100.00
77110;BME280;66062;52.464;16.922;2023-04-09T05:18:58;101538.66;;;6.32;100.00
77110;BME280;66062;52.464;16.922;2023-04-09T05:21:24;101534.28;;;6.31;100.00
77110;BME280;66062;52.464;16.922;2023-04-09T05:23:50;101540.44;;;6.31;100.00
77110;BME280;66062;52.464;16.922;2023-04-09T05:26:15;101540.13;;;6.52;100.00
77110;BME280;66062;52.464;16.922;2023-04-09T05:28:40;101537.03;;;6.73;100.00
77110;BME280;66062;52.464;16.922;2023-04-09T05:31:06;101530.03;;;6.86;100.00
77110;BME280;66062;52.464;16.922;2023-04-09T05:33:37;101525.50;;;7.03;100.00
77110;BME280;66062;52.464;16.922;2023-04-09T05:36:03;101526.53;;;6.86;100.00
77110;BME280;66062;52.464;16.922;2023-04-09T05:38:28;101530.31;;;6.96;100.00
77110;BME280;66062;52.464;16.922;2023-04-09T05:40:54;101521.50;;;7.38;97.87
77110;BME280;66062;52.464;16.922;2023-04-09T05:43:19;101528.44;;;7.41;96.53
77110;BME280;66062;52.464;16.922;2023-04-09T05:45:45;101528.31;;;7.83;93.73
77110;BME280;66062;52.464;16.922;2023-04-09T05:48:10;101536.41;;;7.82;93.59
77110;BME280;66062;52.464;16.922;2023-04-09T05:50:36;101543.66;;;7.65;96.10
77110;BME280;66062;52.464;16.922;2023-04-09T05:53:01;101544.91;;;7.31;98.06
77110;BME280;66062;52.464;16.922;2023-04-09T05:55:26;101545.47;;;7.51;98.12
77110;BME280;66062;52.464;16.922;2023-04-09T05:57:52;101541.00;;;7.65;96.99
77110;BME280;66062;52.464;16.922;2023-04-09T06:00:17;101541.03;;;7.78;95.38
77110;BME280;66062;52.464;16.922;2023-04-09T06:02:43;101536.72;;;7.63;96.02
77110;BME280;66062;52.464;16.922;2023-04-09T06:05:09;101550.34;;;7.30;97.76
77110;BME280;66062;52.464;16.922;2023-04-09T06:07:35;101558.78;;;7.08;100.00
77110;BME280;66062;52.464;16.922;2023-04-09T06:10:01;101556.97;;;7.09;100.00
77110;BME280;66062;52.464;16.922;2023-04-09T06:12:26;101555.47;;;6.91;100.00
77110;BME280;66062;52.464;16.922;2023-04-09T06:14:52;101551.06;;;6.75;100.00
77110;BME280;66062;52.464;16.922;2023-04-09T06:17:18;101551.41;;;6.55;100.00
77110;BME280;66062;52.464;16.922;2023-04-09T06:19:43;101558.19;;;6.45;100.00
77110;BME280;66062;52.464;16.922;2023-04-09T06:22:10;101552.63;;;6.50;100.00
77110;BME280;66062;52.464;16.922;2023-04-09T06:24:35;101548.59;;;6.72;100.00
77110;BME280;66062;52.464;16.922;2023-04-09T06:27:01;101550.31;;;6.73;100.00
77110;BME280;66062;52.464;16.922;2023-04-09T06:29:26;101546.34;;;6.80;100.00
77110;BME280;66062;52.464;16.922;2023-04-09T06:31:52;101550.16;;;6.91;100.00
77110;BME280;66062;52.464;16.922;2023-04-09T06:34:18;101548.84;;;7.26;100.00
77110;BME280;66062;52.464;16.922;2023-04-09T06:36:43;101545.97;;;7.15;100.00
77110;BME280;66062;52.464;16.922;2023-04-09T06:39:09;101561.50;;;7.49;100.00
77110;BME280;66062;52.464;16.922;2023-04-09T06:41:34;101548.88;;;7.53;99.61
77110;BME280;66062;52.464;16.922;2023-04-09T06:44:00;101546.34;;;7.51;98.45
77110;BME280;66062;52.464;16.922;2023-04-09T06:46:27;101543.28;;;7.43;99.41
77110;BME280;66062;52.464;16.922;2023-04-09T06:48:52;101552.22;;;7.14;100.00
77110;BME280;66062;52.464;16.922;2023-04-09T06:51:18;101550.31;;;6.87;100.00
77110;BME280;66062;52.464;16.922;2023-04-09T06:53:43;101552.59;;;6.79;100.00
77110;BME280;66062;52.464;16.922;2023-04-09T06:56:09;101553.53;;;6.78;100.00
77110;BME280;66062;52.464;16.922;2023-04-09T06:58:35;101556.00;;;6.81;100.00
77110;BME280;66062;52.464;16.922;2023-04-09T07:01:00;101565.00;;;6.93;100.00
77110;BME280;66062;52.464;16.922;2023-04-09T07:03:26;101559.03;;;7.32;100.00
77110;BME280;66062;52.464;16.922;2023-04-09T07:05:53;101566.72;;;7.22;100.00
77110;BME280;66062;52.464;16.922;2023-04-09T07:08:19;101578.19;;;7.65;100.00
77110;BME280;66062;52.464;16.922;2023-04-09T07:10:44;101577.72;;;7.59;99.65
77110;BME280;66062;52.464;16.922;2023-04-09T07:13:11;101585.44;;;7.35;100.00
77110;BME280;66062;52.464;16.922;2023-04-09T07:15:38;101586.72;;;7.42;100.00
77110;BME280;66062;52.464;16.922;2023-04-09T07:18:03;101574.91;;;8.15;96.42
77110;BME280;66062;52.464;16.922;2023-04-09T07:20:28;101579.63;;;8.51;92.36
77110;BME280;66062;52.464;16.922;2023-04-09T07:22:54;101578.09;;;8.35;93.34
77110;BME280;66062;52.464;16.922;2023-04-09T07:25:20;101575.16;;;8.52;92.57
77110;BME280;66062;52.464;16.922;2023-04-09T07:27:45;101584.25;;;9.00;90.27
77110;BME280;66062;52.464;16.922;2023-04-09T07:30:11;101582.22;;;9.41;87.44
77110;BME280;66062;52.464;16.922;2023-04-09T07:32:36;101586.69;;;9.41;88.01
77110;BME280;66062;52.464;16.922;2023-04-09T07:35:06;101588.53;;;8.90;90.41
77110;BME280;66062;52.464;16.922;2023-04-09T07:37:33;101598.09;;;8.80;90.47
77110;BME280;66062;52.464;16.922;2023-04-09T07:40:01;101597.69;;;8.86;91.09
77110;BME280;66062;52.464;16.922;2023-04-09T07:42:28;101586.81;;;8.76;90.35
77110;BME280;66062;52.464;16.922;2023-04-09T07:44:53;101594.56;;;8.67;91.32
77110;BME280;66062;52.464;16.922;2023-04-09T07:47:20;101595.53;;;8.39;92.92
77110;BME280;66062;52.464;16.922;2023-04-09T07:49:45;101595.03;;;8.20;94.21
77110;BME280;66062;52.464;16.922;2023-04-09T07:52:11;101588.09;;;8.31;94.81
77110;BME280;66062;52.464;16.922;2023-04-09T07:54:36;101604.03;;;8.71;92.74
77110;BME280;66062;52.464;16.922;2023-04-09T07:57:02;101598.63;;;8.85;91.41
77110;BME280;66062;52.464;16.922;2023-04-09T07:59:27;101592.38;;;9.11;89.69
77110;BME280;66062;52.464;16.922;2023-04-09T08:01:53;101592.47;;;9.10;89.20
77110;BME280;66062;52.464;16.922;2023-04-09T08:04:19;101597.03;;;8.95;89.37
77110;BME280;66062;52.464;16.922;2023-04-09T08:06:44;101601.41;;;8.96;90.30
77110;BME280;66062;52.464;16.922;2023-04-09T08:09:20;101606.78;;;8.69;90.42
77110;BME280;66062;52.464;16.922;2023-04-09T08:11:46;101615.44;;;8.73;90.34
77110;BME280;66062;52.464;16.922;2023-04-09T08:14:13;101611.66;;;9.02;88.97
77110;BME280;66062;52.464;16.922;2023-04-09T08:16:39;101615.50;;;9.23;87.66
77110;BME280;66062;52.464;16.922;2023-04-09T08:19:06;101613.13;;;9.57;85.11
77110;BME280;66062;52.464;16.922;2023-04-09T08:21:32;101608.22;;;10.00;83.50
77110;BME280;66062;52.464;16.922;2023-04-09T08:23:57;101606.78;;;10.78;80.55
77110;BME280;66062;52.464;16.922;2023-04-09T08:26:28;101604.00;;;11.48;75.88
77110;BME280;66062;52.464;16.922;2023-04-09T08:28:54;101599.53;;;12.25;72.48
77110;BME280;66062;52.464;16.922;2023-04-09T08:31:19;101594.75;;;13.34;69.14
77110;BME280;66062;52.464;16.922;2023-04-09T08:33:45;101597.38;;;14.04;65.58
77110;BME280;66062;52.464;16.922;2023-04-09T08:36:11;101601.00;;;13.44;66.76
77110;BME280;66062;52.464;16.922;2023-04-09T08:38:36;101599.31;;;14.61;63.90
77110;BME280;66062;52.464;16.922;2023-04-09T08:41:02;101593.91;;;14.90;63.18
77110;BME280;66062;52.464;16.922;2023-04-09T08:43:29;101592.38;;;13.40;66.14
77110;BME280;66062;52.464;16.922;2023-04-09T08:45:56;101587.25;;;13.37;68.08
77110;BME280;66062;52.464;16.922;2023-04-09T08:48:23;101599.06;;;13.04;68.64
77110;BME280;66062;52.464;16.922;2023-04-09T08:50:49;101596.09;;;12.66;67.77
77110;BME280;66062;52.464;16.922;2023-04-09T08:53:16;101592.31;;;11.71;72.86
77110;BME280;66062;52.464;16.922;2023-04-09T08:55:45;101587.16;;;12.76;68.30
77110;BME280;66062;52.464;16.922;2023-04-09T08:58:10;101582.97;;;11.66;75.60
77110;BME280;66062;52.464;16.922;2023-04-09T09:00:36;101579.47;;;12.19;72.51
77110;BME280;66062;52.464;16.922;2023-04-09T09:03:07;101580.94;;;12.97;69.64
77110;BME280;66062;52.464;16.922;2023-04-09T09:05:39;101582.66;;;14.58;65.10
77110;BME280;66062;52.464;16.922;2023-04-09T09:08:10;101574.03;;;16.11;57.97
77110;BME280;66062;52.464;16.922;2023-04-09T09:10:37;101589.84;;;13.88;63.44
77110;BME280;66062;52.464;16.922;2023-04-09T09:13:17;101589.31;;;12.82;68.61
77110;BME280;66062;52.464;16.922;2023-04-09T09:15:43;101588.19;;;12.43;71.39
77110;BME280;66062;52.464;16.922;2023-04-09T09:18:10;101597.53;;;12.49;71.61
77110;BME280;66062;52.464;16.922;2023-04-09T09:20:36;101597.19;;;12.42;70.35
77110;BME280;66062;52.464;16.922;2023-04-09T09:23:02;101598.84;;;12.75;71.20
77110;BME280;66062;52.464;16.922;2023-04-09T09:25:27;101594.38;;;11.90;71.84
77110;BME280;66062;52.464;16.922;2023-04-09T09:28:06;101610.41;;;10.66;78.90
77110;BME280;66062;52.464;16.922;2023-04-09T09:30:31;101597.13;;;10.88;79.42
77110;BME280;66062;52.464;16.922;2023-04-09T09:33:08;101600.34;;;11.71;75.22
77110;BME280;66062;52.464;16.922;2023-04-09T09:35:51;101602.25;;;10.91;78.04
77110;BME280;66062;52.464;16.922;2023-04-09T09:38:19;101597.47;;;10.84;77.98
77110;BME280;66062;52.464;16.922;2023-04-09T09:40:48;101592.06;;;11.63;75.49
77110;BME280;66062;52.464;16.922;2023-04-09T09:43:14;101582.63;;;12.24;73.00
77110;BME280;66062;52.464;16.922;2023-04-09T09:45:40;101588.47;;;12.82;70.94
77110;BME280;66062;52.464;16.922;2023-04-09T09:48:09;101582.78;;;13.17;69.05
77110;BME280;66062;52.464;16.922;2023-04-09T09:50:36;101585.91;;;13.22;69.12
77110;BME280;66062;52.464;16.922;2023-04-09T09:53:03;101591.16;;;14.03;66.44
77110;BME280;66062;52.464;16.922;2023-04-09T09:55:39;101578.78;;;14.22;64.68
77110;BME280;66062;52.464;16.922;2023-04-09T09:58:16;101577.38;;;14.75;64.32
77110;BME280;66062;52.464;16.922;2023-04-09T10:00:45;101563.03;;;16.58;57.48
77110;BME280;66062;52.464;16.922;2023-04-09T10:03:19;101556.88;;;18.35;53.46
77110;BME280;66062;52.464;16.922;2023-04-09T10:05:47;101558.22;;;19.28;48.74
77110;BME280;66062;52.464;16.922;2023-04-09T10:08:13;101560.16;;;19.97;46.12
77110;BME280;66062;52.464;16.922;2023-04-09T10:10:40;101547.00;;;19.55;46.29
77110;BME280;66062;52.464;16.922;2023-04-09T10:13:16;101545.94;;;18.93;47.30
77110;BME280;66062;52.464;16.922;2023-04-09T10:15:43;101547.09;;;20.92;44.77
77110;BME280;66062;52.464;16.922;2023-04-09T10:18:09;101537.69;;;21.47;43.21
77110;BME280;66062;52.464;16.922;2023-04-09T10:23:38;101536.81;;;20.19;45.43
77110;BME280;66062;52.464;16.922;2023-04-09T10:26:05;101547.28;;;21.05;42.36
77110;BME280;66062;52.464;16.922;2023-04-09T10:28:31;101552.22;;;18.77;47.44
77110;BME280;66062;52.464;16.922;2023-04-09T10:30:57;101546.00;;;19.48;45.86
77110;BME280;66062;52.464;16.922;2023-04-09T10:33:25;101536.75;;;20.27;45.47
77110;BME280;66062;52.464;16.922;2023-04-09T10:35:59;101537.59;;;19.11;46.71
77110;BME280;66062;52.464;16.922;2023-04-09T10:38:33;101539.63;;;18.12;49.00
77110;BME280;66062;52.464;16.922;2023-04-09T10:41:11;101546.28;;;16.64;52.66
77110;BME280;66062;52.464;16.922;2023-04-09T10:43:38;101545.53;;;15.73;56.96
77110;BME280;66062;52.464;16.922;2023-04-09T10:46:06;101547.56;;;14.49;62.50
77110;BME280;66062;52.464;16.922;2023-04-09T10:48:33;101544.69;;;14.80;60.94
77110;BME280;66062;52.464;16.922;2023-04-09T10:51:00;101542.25;;;14.96;60.86
77110;BME280;66062;52.464;16.922;2023-04-09T10:53:26;101554.56;;;13.93;63.04
77110;BME280;66062;52.464;16.922;2023-04-09T10:55:52;101556.78;;;13.38;65.31
77110;BME280;66062;52.464;16.922;2023-04-09T10:58:18;101551.50;;;13.57;65.05
77110;BME280;66062;52.464;16.922;2023-04-09T11:00:46;101550.91;;;13.14;66.65
77110;BME280;66062;52.464;16.922;2023-04-09T11:05:56;101562.09;;;12.46;69.65
77110;BME280;66062;52.464;16.922;2023-04-09T11:08:24;101557.72;;;12.24;71.40
77110;BME280;66062;52.464;16.922;2023-04-09T11:10:51;101562.06;;;12.57;70.17
77110;BME280;66062;52.464;16.922;2023-04-09T11:13:20;101560.28;;;12.46;69.42
77110;BME280;66062;52.464;16.922;2023-04-09T11:15:46;101555.47;;;12.81;68.47
77110;BME280;66062;52.464;16.922;2023-04-09T11:18:23;101553.97;;;12.68;70.03
77110;BME280;66062;52.464;16.922;2023-04-09T11:20:48;101559.78;;;12.52;70.57
77110;BME280;66062;52.464;16.922;2023-04-09T11:23:16;101560.03;;;12.49;70.18
77110;BME280;66062;52.464;16.922;2023-04-09T11:25:41;101554.81;;;12.48;70.01
77110;BME280;66062;52.464;16.922;2023-04-09T11:28:06;101560.19;;;12.68;69.51
77110;BME280;66062;52.464;16.922;2023-04-09T11:30:33;101553.38;;;13.36;67.00
77110;BME280;66062;52.464;16.922;2023-04-09T11:32:59;101544.63;;;15.09;61.51
77110;BME280;66062;52.464;16.922;2023-04-09T11:35:25;101553.75;;;14.79;61.44
77110;BME280;66062;52.464;16.922;2023-04-09T11:37:51;101551.72;;;13.85;64.30
77110;BME280;66062;52.464;16.922;2023-04-09T11:40:21;101552.56;;;13.76;65.10
77110;BME280;66062;52.464;16.922;2023-04-09T11:42:54;101550.00;;;13.34;66.14
77110;BME280;66062;52.464;16.922;2023-04-09T11:45:25;101545.00;;;13.50;66.48
77110;BME280;66062;52.464;16.922;2023-04-09T11:47:51;101542.59;;;13.57;66.00
77110;BME280;66062;52.464;16.922;2023-04-09T11:50:18;101546.91;;;13.88;65.54
77110;BME280;66062;52.464;16.922;2023-04-09T11:52:44;101551.34;;;14.28;63.99
77110;BME280;66062;52.464;16.922;2023-04-09T11:55:11;101547.97;;;13.66;65.93
77110;BME280;66062;52.464;16.922;2023-04-09T11:57:40;101550.88;;;13.94;65.53
77110;BME280;66062;52.464;16.922;2023-04-09T12:00:11;101546.66;;;13.51;66.65
77110;BME280;66062;52.464;16.922;2023-04-09T12:02:46;101546.38;;;14.13;64.68
77110;BME280;66062;52.464;16.922;2023-04-09T12:05:21;101545.38;;;15.38;60.83
77110;BME280;66062;52.464;16.922;2023-04-09T12:07:47;101542.78;;;16.89;55.74
77110;BME280;66062;52.464;16.922;2023-04-09T12:10:12;101529.00;;;18.26;51.35
77110;BME280;66062;52.464;16.922;2023-04-09T12:12:42;101530.56;;;18.77;51.00
77110;BME280;66062;52.464;16.922;2023-04-09T12:15:22;101528.53;;;19.51;47.75
77110;BME280;66062;52.464;16.922;2023-04-09T12:17:53;101530.41;;;19.42;48.21
77110;BME280;66062;52.464;16.922;2023-04-09T12:20:45;101525.78;;;19.04;49.28
77110;BME280;66062;52.464;16.922;2023-04-09T12:23:12;101533.13;;;18.63;49.17
77110;BME280;66062;52.464;16.922;2023-04-09T12:25:40;101524.47;;;18.84;49.31
77110;BME280;66062;52.464;16.922;2023-04-09T12:28:08;101533.00;;;17.98;52.13
77110;BME280;66062;52.464;16.922;2023-04-09T12:30:34;101529.88;;;18.43;50.83
77110;BME280;66062;52.464;16.922;2023-04-09T12:32:59;101533.97;;;16.87;54.60
77110;BME280;66062;52.464;16.922;2023-04-09T12:35:25;101530.66;;;16.32;56.74
77110;BME280;66062;52.464;16.922;2023-04-09T12:37:51;101520.81;;;16.23;56.69
77110;BME280;66062;52.464;16.922;2023-04-09T12:40:18;101523.03;;;16.10;57.77
77110;BME280;66062;52.464;16.922;2023-04-09T12:42:44;101526.84;;;16.78;56.76
77110;BME280;66062;52.464;16.922;2023-04-09T12:45:12;101528.47;;;16.71;56.11
77110;BME280;66062;52.464;16.922;2023-04-09T12:47:38;101518.59;;;17.05;55.31
77110;BME280;66062;52.464;16.922;2023-04-09T12:50:04;101527.44;;;17.58;54.28
77110;BME280;66062;52.464;16.922;2023-04-09T12:52:30;101526.22;;;17.86;52.25
77110;BME280;66062;52.464;16.922;2023-04-09T12:54:56;101516.97;;;17.97;52.64